Pagrindinis puslapis
METAR-TAF:

METAR-TAF

Oro uostai :

Šiaulių oro uostas

Šiauliai, Lietuva

platuma: 55-53-38N, ilguma: 023-23-42E, Aukštis: 135 m

Dabartinis oras

Ataskaita buvo paskelbta 30 minutes, ne 03:20 UTC
Vėjas 7 kt iš Pietvakarių
Temperatūra 14°C
Drėgmė 77%
Slėgis 1026 hPa
Matomumas 10 km arba daugiau
nėra debesų žemiau 1500 m ir nėra kamuolinių lietaus debesų

METAR: EYSA 240320Z 22007KT CAVOK 14/10 Q1026 BLU NOSIG

Laikas: 06:50 (03:50 UTC)

Prognozė

Ataskaita buvo paskelbta 1 valandą ir 50 minutes, ne 02:00 UTC
Prognozė galioja nuo 24 metu 03 UTC su 24 metu 12 UTC
Vėjas 10 kt iš Pietų/Pietvakarių
Matomumas: 9000 m

TAF: EYSA 240200Z 2403/2412 21010KT 9000 NSC

Orai ataskaitas ir orų prognozės (METAR, TAF).

turimą stotys yra geltonos ir raudonos taškus žemėlapyje.

Perkelti pele per norėdami pamatyti stoties vardą.

Tada spustelėkite, norėdami matyti oro stebėjimo ir prognozės.

Norėdami pakeisti žemėlapį: spustelėkite ant žalios mygtukų su juodo kryžiaus žemyn,; žalią mygtuką su brūkšneliu, jei norite nutolinti; arba žalių rodyklių gretimoms žemėlapius.


METAR-TAF: